Terminal Aerodrome Forecast
Issued by NWS

Home | Current Version | Previous Version | Text Only | Print | Product List | Glossary On
Versions: 1 2 3 4 5 6 7 8 9 10 11 12 13 14 15
000
FTUS44 KMAF 280800 AAA
TAFCNM
TAF AMD
KCNM 280812Z 2808/2906 16006KT P6SM SCT200
     FM281200 15005KT P6SM OVC035
     FM281500 18012G22KT P6SM SCT090 BKN250
     FM290200 20008KT P6SM FEW200=

USA.gov is the U.S. government's official web portal to all federal, state and local government web resources and services.